Time;durP1;ratioP1;P1;durP2;ratioP2;P2;SDS_P1;SDS_P2;PMS_P1;PMS_P2;Temp;Humidity;BMP_temperature;BMP_pressure;BME280_temperature;BME280_humidity;BME280_pressure;Samples;Min_cycle;Max_cycle;Signal;HPM_P1;HPM_P2
2020/12/27 00:01:14;;;;;;;24.30;3.63;;;;;;;-2.83;71.69;96415.19;5052036;28;20079;-68
2020/12/27 00:03:42;;;;;;;30.20;3.88;;;;;;;-2.84;71.85;96415.41;5052394;28;20052;-68
2020/12/27 00:06:09;;;;;;;29.10;4.05;;;;;;;-2.85;72.01;96403.16;5051875;28;20072;-68
2020/12/27 00:08:35;;;;;;;32.25;3.95;;;;;;;-2.88;71.99;96397.22;5052420;28;20045;-67
2020/12/27 00:11:01;;;;;;;22.52;3.72;;;;;;;-2.85;72.06;96392.50;5052365;28;20075;-68
2020/12/27 00:13:27;;;;;;;33.00;4.18;;;;;;;-2.88;71.97;96380.41;5051915;28;20040;-67
2020/12/27 00:15:53;;;;;;;49.22;4.95;;;;;;;-2.93;71.97;96373.13;5051543;28;20041;-68
2020/12/27 00:18:19;;;;;;;34.25;3.60;;;;;;;-2.93;72.11;96373.13;5051671;28;20132;-68
2020/12/27 00:20:44;;;;;;;27.90;3.90;;;;;;;-2.95;72.27;96369.91;5052119;28;20561;-68
2020/12/27 00:23:11;;;;;;;27.77;3.58;;;;;;;-2.95;72.33;96353.91;5051654;28;20436;-68
2020/12/27 00:25:39;;;;;;;41.13;4.32;;;;;;;-2.97;72.30;96342.69;5052026;28;20041;-68
2020/12/27 00:28:05;;;;;;;17.67;3.10;;;;;;;-2.98;72.51;96338.38;5051681;28;20465;-68
2020/12/27 00:30:31;;;;;;;27.48;3.70;;;;;;;-3.01;72.47;96336.19;5051836;28;20459;-67
2020/12/27 00:32:58;;;;;;;31.50;3.97;;;;;;;-3.00;72.35;96334.34;5051623;28;20136;-68
2020/12/27 00:35:24;;;;;;;38.72;4.35;;;;;;;-3.00;72.42;96335.16;5051114;28;20052;-68
2020/12/27 00:37:50;;;;;;;24.10;3.38;;;;;;;-2.99;72.33;96326.09;5051213;28;20053;-68
2020/12/27 00:40:17;;;;;;;31.48;3.70;;;;;;;-2.99;72.06;96328.75;5051187;28;20048;-68
2020/12/27 00:42:42;;;;;;;26.67;3.42;;;;;;;-3.02;71.92;96323.91;5051803;28;20408;-68
2020/12/27 00:45:08;;;;;;;28.60;3.67;;;;;;;-3.01;71.95;96328.19;5051193;28;20095;-68
2020/12/27 00:47:34;;;;;;;31.02;3.85;;;;;;;-3.02;71.86;96313.25;5051239;28;20045;-68
2020/12/27 00:50:00;;;;;;;33.58;4.07;;;;;;;-3.01;71.89;96314.88;5051445;28;20044;-68
2020/12/27 00:52:26;;;;;;;35.92;4.47;;;;;;;-3.03;72.08;96308.94;5051292;28;20045;-68
2020/12/27 00:54:52;;;;;;;30.63;4.20;;;;;;;-3.03;72.13;96311.63;5051531;28;20048;-66
2020/12/27 00:57:19;;;;;;;24.65;3.75;;;;;;;-3.01;72.08;96320.22;5051136;28;20486;-68
2020/12/27 00:59:45;;;;;;;34.55;4.38;;;;;;;-3.02;71.99;96305.28;5051354;28;20094;-67
2020/12/27 01:02:11;;;;;;;31.25;4.63;;;;;;;-3.03;72.01;96308.94;5050887;28;20052;-68
2020/12/27 01:04:37;;;;;;;40.05;4.53;;;;;;;-3.02;72.17;96297.28;5051122;28;20049;-67
2020/12/27 01:07:03;;;;;;;29.60;3.95;;;;;;;-3.02;72.14;96296.47;5050837;28;20045;-68
2020/12/27 01:09:29;;;;;;;36.55;4.07;;;;;;;-3.03;71.90;96298.28;5051396;28;20072;-68
2020/12/27 01:11:55;;;;;;;26.40;3.80;;;;;;;-3.03;71.79;96292.97;5051200;28;20068;-67
2020/12/27 01:14:21;;;;;;;37.47;4.30;;;;;;;-3.00;71.57;96297.84;5050512;28;20095;-67
2020/12/27 01:16:49;;;;;;;21.98;3.63;;;;;;;-3.04;71.53;96296.69;5050886;28;20041;-67
2020/12/27 01:19:15;;;;;;;25.13;3.92;;;;;;;-3.06;71.77;96298.78;5050596;28;20045;-67
2020/12/27 01:21:42;;;;;;;30.58;4.45;;;;;;;-3.07;71.74;96297.16;5051165;28;20049;-68
2020/12/27 01:24:08;;;;;;;24.17;4.15;;;;;;;-3.10;71.93;96288.81;5050711;28;20049;-68
2020/12/27 01:26:34;;;;;;;34.10;3.95;;;;;;;-3.15;71.85;96284.19;5051082;28;20052;-68
2020/12/27 01:29:01;;;;;;;23.55;3.67;;;;;;;-3.13;72.02;96284.78;5051030;28;20407;-68
2020/12/27 01:31:28;;;;;;;32.05;3.58;;;;;;;-3.15;71.68;96286.84;5050691;28;20045;-67
2020/12/27 01:33:54;;;;;;;27.02;4.13;;;;;;;-3.29;71.83;96282.81;5050647;28;20045;-68
2020/12/27 01:36:26;;;;;;;36.45;4.32;;;;;;;-3.30;71.80;96279.31;5050479;28;20052;-68
2020/12/27 01:38:52;;;;;;;34.95;4.10;;;;;;;-3.30;71.92;96273.19;5051042;28;20041;-68
2020/12/27 01:41:20;;;;;;;29.08;3.97;;;;;;;-3.32;71.95;96267.31;5050424;28;20508;-68
2020/12/27 01:43:58;;;;;;;87.35;6.28;;;;;;;-3.32;71.91;96267.31;5048750;28;20618;-68
2020/12/27 01:46:24;;;;;;;28.52;4.15;;;;;;;-3.30;71.98;96265.22;5030470;28;20119;-68
2020/12/27 01:48:50;;;;;;;26.98;4.10;;;;;;;-3.32;71.93;96267.31;5031045;28;20065;-67
2020/12/27 01:51:16;;;;;;;21.88;3.65;;;;;;;-3.32;71.89;96252.13;5034645;28;20053;-68
2020/12/27 01:53:42;;;;;;;29.30;4.53;;;;;;;-3.32;71.77;96254.00;5034860;28;20111;-68
2020/12/27 01:56:12;;;;;;;33.60;4.22;;;;;;;-3.33;72.21;96239.88;5034259;28;20060;-68
2020/12/27 01:58:40;;;;;;;40.55;4.40;;;;;;;-3.36;72.45;96239.53;5034772;28;20056;-68
2020/12/27 02:01:07;;;;;;;26.15;3.92;;;;;;;-3.38;72.33;96229.09;5034440;28;20077;-68
2020/12/27 02:03:33;;;;;;;33.10;4.07;;;;;;;-3.41;72.43;96218.91;5034741;28;20042;-68
2020/12/27 02:06:00;;;;;;;26.45;3.90;;;;;;;-3.42;72.54;96219.97;5034780;28;20061;-68
2020/12/27 02:08:27;;;;;;;19.23;3.38;;;;;;;-3.44;72.26;96212.22;5034328;28;20757;-68
2020/12/27 02:10:54;;;;;;;31.13;3.80;;;;;;;-3.47;72.35;96201.22;5034590;28;20148;-68
2020/12/27 02:13:20;;;;;;;27.55;3.70;;;;;;;-3.49;72.60;96187.34;5034085;28;20042;-68
2020/12/27 02:15:46;;;;;;;25.85;4.10;;;;;;;-3.49;72.83;96188.16;5050746;28;20060;-66
2020/12/27 02:18:12;;;;;;;34.90;4.28;;;;;;;-3.49;73.04;96176.69;5053929;28;20037;-66
2020/12/27 02:20:38;;;;;;;33.60;4.10;;;;;;;-3.50;73.08;96170.56;5054402;28;20128;-66
2020/12/27 02:23:05;;;;;;;25.65;3.72;;;;;;;-3.52;73.00;96151.34;5053939;28;20485;-66
2020/12/27 02:25:32;;;;;;;23.42;3.80;;;;;;;-3.54;73.03;96156.09;5054430;28;20041;-66
2020/12/27 02:27:58;;;;;;;27.30;4.10;;;;;;;-3.54;72.73;96142.78;5054299;28;20037;-66
2020/12/27 02:30:24;;;;;;;26.55;3.97;;;;;;;-3.57;73.00;96129.94;5053747;28;20068;-66
2020/12/27 02:32:51;;;;;;;26.58;3.97;;;;;;;-3.58;73.09;96124.84;5053958;28;20048;-66
2020/12/27 02:35:16;;;;;;;26.08;3.83;;;;;;;-3.58;73.12;96115.00;5053398;28;20400;-66
2020/12/27 02:37:42;;;;;;;31.67;3.90;;;;;;;-3.58;73.05;96107.03;5054007;28;20048;-66
2020/12/27 02:40:08;;;;;;;28.00;4.00;;;;;;;-3.59;73.21;96108.06;5053664;28;20049;-66
2020/12/27 02:42:35;;;;;;;43.20;4.20;;;;;;;-3.61;73.17;96096.84;5053965;28;20150;-66
2020/12/27 02:45:10;;;;;;;21.25;3.47;;;;;;;-3.62;73.29;96097.88;5053577;28;20044;-66
2020/12/27 02:47:38;;;;;;;32.53;4.40;;;;;;;-3.64;73.50;96088.53;5053813;28;20040;-66
2020/12/27 02:50:08;;;;;;;27.10;3.90;;;;;;;-3.67;73.18;96084.47;5053320;28;20053;-66
2020/12/27 02:52:34;;;;;;;46.92;4.78;;;;;;;-3.67;73.22;96084.47;5053665;28;20544;-66
2020/12/27 02:55:00;;;;;;;34.63;4.30;;;;;;;-3.65;73.33;96077.09;5053655;28;20057;-66
2020/12/27 02:57:26;;;;;;;27.05;3.85;;;;;;;-3.64;73.23;96072.56;5052748;28;20079;-66
2020/12/27 02:59:53;;;;;;;12.15;3.13;;;;;;;-3.63;73.32;96064.34;5053689;28;20048;-66
2020/12/27 03:02:19;;;;;;;29.85;3.92;;;;;;;-3.62;73.47;96060.63;5052291;28;20099;-66
2020/12/27 03:04:45;;;;;;;32.10;4.13;;;;;;;-3.60;73.48;96052.41;5053571;28;20057;-66
2020/12/27 03:07:11;;;;;;;36.72;4.18;;;;;;;-3.62;73.37;96044.66;5052987;28;20045;-67
2020/12/27 03:09:37;;;;;;;32.63;4.30;;;;;;;-3.63;73.23;96040.41;5053633;28;20045;-66
2020/12/27 03:12:03;;;;;;;25.63;4.28;;;;;;;-3.63;73.32;96035.06;5053053;28;20043;-67
2020/12/27 03:14:29;;;;;;;33.05;4.43;;;;;;;-3.62;73.33;96028.69;5052989;28;20405;-66
2020/12/27 03:16:55;;;;;;;28.52;4.53;;;;;;;-3.66;73.35;96027.53;5053330;28;20064;-67
2020/12/27 03:19:21;;;;;;;25.80;4.07;;;;;;;-3.66;73.32;96022.22;5052806;28;20079;-66
2020/12/27 03:21:47;;;;;;;29.45;4.22;;;;;;;-3.68;73.18;96017.16;5053183;28;20204;-66
2020/12/27 03:24:13;;;;;;;36.20;4.10;;;;;;;-3.68;73.38;96013.69;5052780;28;20048;-66
2020/12/27 03:26:39;;;;;;;33.33;4.53;;;;;;;-3.68;73.32;96013.69;5053217;28;20068;-66
2020/12/27 03:29:05;;;;;;;26.65;3.72;;;;;;;-3.67;73.28;96012.63;5052713;28;20041;-66
2020/12/27 03:31:31;;;;;;;29.42;4.40;;;;;;;-3.67;73.29;96004.66;5053013;28;20094;-66
2020/12/27 03:33:58;;;;;;;17.52;3.60;;;;;;;-3.71;73.34;95996.34;5052837;28;20064;-66
2020/12/27 03:36:24;;;;;;;24.40;3.90;;;;;;;-3.71;73.66;95987.53;5052358;28;20102;-66
2020/12/27 03:38:51;;;;;;;25.83;4.20;;;;;;;-3.70;73.69;95994.50;5052929;28;20049;-66
2020/12/27 03:41:18;;;;;;;35.00;4.30;;;;;;;-3.72;73.73;95991.25;5052549;28;20045;-66
2020/12/27 03:43:44;;;;;;;29.38;4.00;;;;;;;-3.74;73.48;95983.50;5052864;28;20049;-66
2020/12/27 03:46:10;;;;;;;28.80;3.92;;;;;;;-3.76;73.43;95974.13;5052095;28;20063;-66
2020/12/27 03:48:36;;;;;;;30.75;4.30;;;;;;;-3.78;73.56;95977.03;5052716;28;20102;-67
2020/12/27 03:51:02;;;;;;;25.42;4.00;;;;;;;-3.80;73.33;95965.03;5052331;28;20469;-67
2020/12/27 03:53:28;;;;;;;43.88;4.70;;;;;;;-3.84;73.50;95967.34;5052626;28;20083;-66
2020/12/27 03:55:54;;;;;;;29.20;4.10;;;;;;;-3.86;73.70;95953.47;5052508;28;20049;-66
2020/12/27 03:58:20;;;;;;;30.23;4.18;;;;;;;-3.85;73.71;95954.28;5052118;28;20049;-66
2020/12/27 04:00:46;;;;;;;35.10;4.53;;;;;;;-3.87;73.64;95943.06;5052492;28;20049;-66
2020/12/27 04:03:12;;;;;;;24.50;3.85;;;;;;;-3.88;73.84;95944.13;5051921;28;20072;-67
2020/12/27 04:05:38;;;;;;;31.05;4.35;;;;;;;-3.88;73.72;95936.13;5052494;28;20615;-66
2020/12/27 04:08:05;;;;;;;30.05;4.30;;;;;;;-3.90;73.76;95925.75;5051904;28;20143;-66
2020/12/27 04:10:31;;;;;;;36.15;4.25;;;;;;;-3.92;73.80;95922.50;5052410;28;20045;-66
2020/12/27 04:12:57;;;;;;;24.83;4.03;;;;;;;-3.92;73.89;95917.16;5051369;28;20045;-66
2020/12/27 04:15:23;;;;;;;27.92;4.40;;;;;;;-3.92;73.95;95911.03;5051389;28;20048;-66
2020/12/27 04:17:48;;;;;;;37.08;4.25;;;;;;;-3.91;73.95;95899.38;5052156;28;20041;-66
2020/12/27 04:20:14;;;;;;;31.67;4.28;;;;;;;-3.90;73.93;95890.34;5051655;28;20072;-67
2020/12/27 04:22:40;;;;;;;35.42;4.63;;;;;;;-3.91;73.93;95883.44;5052063;28;20040;-66
2020/12/27 04:25:08;;;;;;;28.65;4.15;;;;;;;-3.93;74.01;95873.00;5051748;28;20928;-66
2020/12/27 04:27:34;;;;;;;28.73;3.90;;;;;;;-3.94;74.13;95877.50;5051912;28;20041;-66
2020/12/27 04:30:00;;;;;;;26.80;4.30;;;;;;;-3.94;74.14;95877.50;5051993;28;20041;-66
2020/12/27 04:32:26;;;;;;;30.60;4.35;;;;;;;-3.94;74.10;95877.50;5051217;28;20067;-66
2020/12/27 04:34:52;;;;;;;24.48;3.67;;;;;;;-3.94;74.14;95869.53;5051692;28;20048;-66
2020/12/27 04:37:18;;;;;;;20.85;4.05;;;;;;;-3.94;73.91;95868.72;5051326;28;20049;-66
2020/12/27 04:39:44;;;;;;;23.55;3.85;;;;;;;-3.92;74.02;95847.22;5051836;28;20525;-66
2020/12/27 04:42:11;;;;;;;18.00;3.83;;;;;;;-3.91;74.00;95849.66;5051275;28;20118;-66
2020/12/27 04:44:39;;;;;;;32.90;4.00;;;;;;;-3.90;74.09;95845.94;5051320;28;20044;-66
2020/12/27 04:47:05;;;;;;;34.60;4.50;;;;;;;-3.90;74.02;95837.97;5051186;28;20049;-66
2020/12/27 04:49:31;;;;;;;31.40;4.47;;;;;;;-3.89;74.09;95836.91;5051571;28;20515;-66
2020/12/27 04:52:01;;;;;;;18.90;3.80;;;;;;;-3.87;73.76;95834.00;5051538;28;20408;-66
2020/12/27 04:54:28;;;;;;;17.95;3.95;;;;;;;-3.88;73.52;95832.41;5051446;28;20385;-66
2020/12/27 04:56:55;;;;;;;29.90;3.55;;;;;;;-3.89;73.66;95826.28;5051554;28;20048;-66
2020/12/27 04:59:22;;;;;;;29.42;3.65;;;;;;;-3.89;73.52;95814.81;5050965;28;20098;-66
2020/12/27 05:01:50;;;;;;;26.88;3.95;;;;;;;-3.89;73.70;95799.66;5051476;28;20056;-66
2020/12/27 05:04:21;;;;;;;37.38;4.45;;;;;;;-3.89;73.74;95788.22;5050929;28;20082;-66
2020/12/27 05:06:47;;;;;;;30.00;4.32;;;;;;;-3.86;73.99;95790.38;5051368;28;20124;-68
2020/12/27 05:09:13;;;;;;;19.23;3.63;;;;;;;-3.85;73.89;95792.03;5050702;28;20048;-66
2020/12/27 05:11:39;;;;;;;28.10;4.07;;;;;;;-3.84;74.09;95790.97;5051259;28;20124;-66
2020/12/27 05:14:05;;;;;;;30.92;3.80;;;;;;;-3.83;74.12;95784.59;5050429;28;20563;-66
2020/12/27 05:16:32;;;;;;;23.70;3.60;;;;;;;-3.82;73.62;95773.72;5051028;28;20041;-66
2020/12/27 05:18:59;;;;;;;25.80;3.83;;;;;;;-3.83;73.65;95773.97;5051062;28;20041;-66
2020/12/27 05:21:25;;;;;;;34.70;3.92;;;;;;;-3.82;73.43;95778.22;5050638;28;20550;-66
2020/12/27 05:23:52;;;;;;;16.40;3.15;;;;;;;-3.79;73.10;95783.06;5050849;28;20404;-66
2020/12/27 05:26:18;;;;;;;36.40;4.35;;;;;;;-3.79;72.47;95785.72;5050581;28;20049;-66
2020/12/27 05:28:45;;;;;;;28.83;3.42;;;;;;;-3.77;72.18;95783.63;5050846;28;20049;-66
2020/12/27 05:31:12;;;;;;;28.45;3.63;;;;;;;-3.75;72.41;95789.53;5050512;28;20496;-66
2020/12/27 05:33:41;;;;;;;35.22;3.80;;;;;;;-3.71;72.51;95785.31;5050768;28;20045;-66
2020/12/27 05:36:08;;;;;;;31.33;4.00;;;;;;;-3.69;72.35;95786.69;5050187;28;20049;-66
2020/12/27 05:38:34;;;;;;;40.10;4.75;;;;;;;-3.65;72.46;95789.69;5050830;28;20037;-66
2020/12/27 05:41:01;;;;;;;22.88;4.00;;;;;;;-3.65;72.20;95784.38;5050902;28;20048;-66
2020/12/27 05:43:28;;;;;;;20.42;3.30;;;;;;;-3.64;71.39;95785.97;5050629;28;20058;-66
2020/12/27 05:45:56;;;;;;;27.40;4.32;;;;;;;-3.67;71.21;95778.47;5050584;28;20048;-66
2020/12/27 05:48:22;;;;;;;15.30;2.92;;;;;;;-3.65;71.32;95773.72;5050324;28;20045;-66
2020/12/27 05:50:50;;;;;;;26.60;3.60;;;;;;;-3.66;70.98;95766.78;5050870;28;20603;-66
2020/12/27 05:53:19;;;;;;;36.88;4.22;;;;;;;-3.65;71.00;95756.94;5050314;28;20056;-66
2020/12/27 05:55:46;;;;;;;24.90;3.88;;;;;;;-3.63;70.80;95749.53;5050638;28;20154;-66
2020/12/27 05:58:18;;;;;;;28.25;3.92;;;;;;;-3.62;70.92;95751.94;5050240;28;20132;-66
2020/12/27 06:00:44;;;;;;;27.05;4.00;;;;;;;-3.62;71.05;95743.16;5050626;28;20049;-66
2020/12/27 06:03:19;;;;;;;27.45;4.07;;;;;;;-3.62;71.22;95735.97;5050160;28;20457;-66
2020/12/27 06:06:09;;;;;;;24.15;3.42;;;;;;;-3.61;71.24;95731.47;5050674;28;20061;-66
2020/12/27 06:09:13;;;;;;;28.42;3.80;;;;;;;-3.65;71.28;95725.84;5050418;28;20492;-66
2020/12/27 06:11:53;;;;;;;32.17;3.85;;;;;;;-3.64;71.38;95721.31;5050441;28;20381;-66
2020/12/27 06:14:37;;;;;;;28.00;3.47;;;;;;;-3.66;71.15;95710.91;5049807;28;20052;-66
2020/12/27 06:17:04;;;;;;;25.73;3.90;;;;;;;-3.67;71.06;95701.31;5050143;28;20071;-66
2020/12/27 06:19:40;;;;;;;25.02;3.70;;;;;;;-3.65;71.25;95698.38;5050556;28;20048;-66
2020/12/27 06:22:08;;;;;;;25.90;3.65;;;;;;;-3.65;71.21;95693.91;5050157;28;20041;-68
2020/12/27 06:24:35;;;;;;;27.95;4.03;;;;;;;-3.65;71.55;95698.38;5050535;28;20041;-67
2020/12/27 06:27:03;;;;;;;42.15;4.20;;;;;;;-3.65;71.00;95685.09;5050382;28;20044;-68
2020/12/27 06:29:33;;;;;;;30.30;4.32;;;;;;;-3.68;71.24;95692.53;5050301;28;20091;-68
2020/12/27 06:32:02;;;;;;;18.98;3.33;;;;;;;-3.69;71.50;95684.78;5032778;28;20037;-68
2020/12/27 06:34:28;;;;;;;28.25;3.75;;;;;;;-3.67;71.56;95674.69;5050005;28;20091;-67
2020/12/27 06:36:54;;;;;;;26.55;3.50;;;;;;;-3.72;70.74;95667.44;5052016;28;20135;-67
2020/12/27 06:39:25;;;;;;;31.67;3.75;;;;;;;-3.74;70.87;95660.78;5053629;28;20045;-68
2020/12/27 06:42:07;;;;;;;33.67;3.72;;;;;;;-3.73;71.01;95659.72;5054013;28;20457;-67
2020/12/27 06:44:40;;;;;;;26.27;3.47;;;;;;;-3.75;71.14;95651.19;5053553;28;20051;-68
2020/12/27 06:47:07;;;;;;;;;;;;;;;-3.75;71.14;95643.22;5054024;28;20191;-68
2020/12/27 06:49:32;;;;;;;36.40;4.03;;;;;;;-3.80;71.23;95643.13;5053826;28;20372;-68
2020/12/27 06:52:18;;;;;;;32.42;4.03;;;;;;;-3.80;71.40;95630.63;5053637;28;20048;-68
2020/12/27 06:54:47;;;;;;;22.80;3.50;;;;;;;-3.80;71.38;95632.50;5053751;28;20053;-68
2020/12/27 06:57:41;;;;;;;35.97;3.70;;;;;;;-3.79;71.61;95634.09;5053266;28;20061;-68
2020/12/27 07:00:24;;;;;;;19.95;3.42;;;;;;;-3.79;71.36;95639.41;5053261;28;20048;-68
2020/12/27 07:03:06;;;;;;;32.03;3.65;;;;;;;-3.79;71.27;95636.75;5053659;28;20045;-68
2020/12/27 07:05:34;;;;;;;30.83;4.10;;;;;;;-3.81;71.26;95631.69;5053519;28;20441;-68
2020/12/27 07:08:02;;;;;;;19.25;3.35;;;;;;;-3.81;71.39;95622.88;5053546;28;20052;-68
2020/12/27 07:10:31;;;;;;;22.98;3.90;;;;;;;-3.82;71.73;95629.25;5053045;28;20040;-68
2020/12/27 07:13:05;;;;;;;27.65;4.20;;;;;;;-3.81;71.83;95620.22;5053509;28;20079;-68
2020/12/27 07:15:32;;;;;;;45.50;4.72;;;;;;;-3.83;71.88;95606.38;5052813;28;20140;-68
2020/12/27 07:18:08;;;;;;;31.55;4.40;;;;;;;-3.82;71.95;95602.66;5053430;28;20048;-68
2020/12/27 07:20:37;;;;;;;27.98;3.80;;;;;;;-3.82;72.15;95603.47;5053143;28;20563;-68
2020/12/27 07:23:10;;;;;;;20.30;3.50;;;;;;;-3.80;72.22;95595.25;5052806;28;20068;-68
2020/12/27 07:25:42;;;;;;;30.13;4.07;;;;;;;-3.78;72.25;95598.47;5053406;28;20534;-67
2020/12/27 07:28:08;;;;;;;37.58;4.55;;;;;;;-3.78;72.15;95598.47;5052841;28;20048;-68
2020/12/27 07:30:35;;;;;;;32.40;4.35;;;;;;;-3.75;72.02;95609.44;5052891;28;20049;-68
2020/12/27 07:33:07;;;;;;;31.60;4.35;;;;;;;-3.73;72.36;95599.31;5052773;28;20071;-68
2020/12/27 07:35:34;;;;;;;32.25;3.88;;;;;;;-3.68;72.58;95595.94;5052972;28;20102;-68
2020/12/27 07:38:01;;;;;;;34.50;4.20;;;;;;;-3.64;72.07;95593.59;5052862;28;20048;-68
2020/12/27 07:40:31;;;;;;;27.52;4.38;;;;;;;-3.60;71.85;95595.53;5052813;28;20045;-67
2020/12/27 07:42:59;;;;;;;34.33;4.30;;;;;;;-3.56;71.83;95593.94;5052746;28;20060;-67
2020/12/27 07:45:25;;;;;;;26.30;3.78;;;;;;;-3.55;71.64;95587.59;5052038;28;20041;-68
2020/12/27 07:47:51;;;;;;;27.92;4.03;;;;;;;-3.50;71.67;95581.50;5052632;28;20107;-66
2020/12/27 07:50:18;;;;;;;27.90;3.80;;;;;;;-3.45;71.57;95562.94;5052222;28;20045;-68
2020/12/27 07:52:47;;;;;;;34.97;4.45;;;;;;;-3.39;71.51;95558.47;5052796;28;20041;-67
2020/12/27 07:55:24;;;;;;;23.30;3.55;;;;;;;-3.36;71.22;95547.34;5052168;28;20049;-68
2020/12/27 07:57:50;;;;;;;30.63;4.20;;;;;;;-3.27;71.40;95545.84;5052747;28;20037;-67
2020/12/27 08:00:21;;;;;;;21.30;3.70;;;;;;;-3.22;70.29;95537.91;5052199;28;20114;-68
2020/12/27 08:02:47;;;;;;;31.23;4.32;;;;;;;-3.15;70.34;95522.53;5052466;28;20045;-68
2020/12/27 08:05:13;;;;;;;34.05;4.75;;;;;;;-3.07;70.48;95519.41;5051844;28;20507;-67
2020/12/27 08:07:40;;;;;;;36.47;4.28;;;;;;;-2.99;70.30;95494.16;5052454;28;20533;-68
2020/12/27 08:10:17;;;;;;;24.13;3.78;;;;;;;-2.82;69.45;95480.72;5051876;28;20041;-68
2020/12/27 08:12:50;;;;;;;39.55;4.05;;;;;;;-2.57;68.02;95478.25;5052186;28;20045;-67
2020/12/27 08:15:17;;;;;;;22.27;3.42;;;;;;;-2.15;67.86;95466.75;5051342;28;20052;-68
2020/12/27 08:18:00;;;;;;;19.70;3.10;;;;;;;-1.40;66.55;95465.44;5052215;28;20051;-68
2020/12/27 08:20:29;;;;;;;27.85;3.50;;;;;;;-0.90;62.59;95455.06;5051944;28;20033;-66
2020/12/27 08:23:06;;;;;;;15.88;2.92;;;;;;;-0.76;61.57;95452.66;5052146;28;20094;-65
2020/12/27 08:25:34;;;;;;;46.15;3.90;;;;;;;-0.62;63.61;95443.03;5052062;28;20041;-66
2020/12/27 08:28:02;;;;;;;27.88;3.28;;;;;;;-0.56;61.08;95439.28;5052064;28;20508;-66
2020/12/27 08:30:29;;;;;;;27.65;3.40;;;;;;;-0.52;60.97;95435.00;5051551;28;20489;-66
2020/12/27 08:33:06;;;;;;;17.98;2.72;;;;;;;-0.65;60.10;95427.50;5051584;28;20049;-66
2020/12/27 08:35:33;;;;;;;23.70;3.17;;;;;;;-0.74;60.95;95431.78;5051707;28;20045;-66
2020/12/27 08:38:26;;;;;;;22.77;2.72;;;;;;;-1.01;60.19;95432.88;5051913;28;20041;-66
2020/12/27 08:40:59;;;;;;;26.97;3.03;;;;;;;-1.18;60.92;95432.34;5045259;28;20048;-66
2020/12/27 08:43:34;;;;;;;35.70;3.78;;;;;;;-1.32;61.60;95424.84;5051165;28;20065;-66
2020/12/27 08:46:07;;;;;;;25.65;3.63;;;;;;;-1.66;62.49;95429.06;5051290;28;20045;-66
2020/12/27 08:48:36;;;;;;;16.60;3.10;;;;;;;-1.80;62.61;95427.94;5051413;28;20041;-66
2020/12/27 08:51:04;;;;;;;26.58;3.88;;;;;;;-1.82;63.03;95422.09;5051220;28;20118;-67
2020/12/27 08:53:33;;;;;;;27.80;3.40;;;;;;;-1.80;63.66;95411.94;5051499;28;20053;-66
2020/12/27 08:56:01;;;;;;;27.30;3.72;;;;;;;-1.77;64.09;95408.75;5051152;28;20381;-65
2020/12/27 08:58:27;;;;;;;45.92;4.60;;;;;;;-1.70;63.76;95406.63;5050887;28;20041;-65
2020/12/27 09:00:53;;;;;;;26.77;3.38;;;;;;;-1.59;64.18;95401.03;5051115;28;20045;-65
2020/12/27 09:03:20;;;;;;;31.38;3.47;;;;;;;-1.48;64.63;95399.19;5050804;28;20077;-66
2020/12/27 09:05:46;;;;;;;27.58;3.42;;;;;;;-1.39;63.15;95394.94;5051282;28;20045;-65
2020/12/27 09:08:15;;;;;;;36.58;3.83;;;;;;;-1.42;62.50;95390.09;5050798;28;20135;-66
2020/12/27 09:10:42;;;;;;;40.22;3.88;;;;;;;-1.79;63.08;95389.53;5051354;28;20124;-65
2020/12/27 09:13:10;;;;;;;25.55;3.33;;;;;;;-1.58;63.76;95380.47;5050796;28;20110;-68
2020/12/27 09:15:38;;;;;;;27.80;3.05;;;;;;;-1.49;62.46;95368.22;5050917;28;20052;-65
2020/12/27 09:18:06;;;;;;;23.38;2.88;;;;;;;-1.41;62.45;95354.34;5050796;28;20076;-66
2020/12/27 09:20:35;;;;;;;36.67;3.35;;;;;;;-1.31;62.18;95342.84;5051055;28;20053;-65
2020/12/27 09:23:10;;;;;;;24.85;3.03;;;;;;;-1.27;61.52;95335.91;5051177;28;20110;-67
2020/12/27 09:25:37;;;;;;;28.23;3.15;;;;;;;-1.21;62.11;95336.69;5051038;28;20542;-68
2020/12/27 09:28:12;;;;;;;24.08;2.53;;;;;;;-1.20;60.58;95333.78;5050813;28;20424;-66
2020/12/27 09:30:38;;;;;;;37.80;3.22;;;;;;;-1.17;60.91;95327.88;5051187;28;20068;-65
2020/12/27 09:33:04;;;;;;;35.00;3.03;;;;;;;-1.06;61.92;95323.34;5050131;28;20059;-65
2020/12/27 09:35:30;;;;;;;28.70;3.05;;;;;;;-0.98;61.23;95322.00;5050733;28;20496;-68
2020/12/27 09:37:57;;;;;;;33.42;3.40;;;;;;;-0.84;61.15;95312.31;5050966;28;20041;-65
2020/12/27 09:40:23;;;;;;;25.98;2.92;;;;;;;-0.68;61.33;95305.06;5050543;28;20052;-66
2020/12/27 09:42:59;;;;;;;26.77;3.10;;;;;;;-0.55;60.97;95299.16;5050833;28;20056;-68
2020/12/27 09:45:26;;;;;;;25.38;2.78;;;;;;;-0.33;60.55;95291.56;5040441;28;20381;-65
2020/12/27 09:47:54;;;;;;;28.38;3.20;;;;;;;-0.12;61.38;95275.41;5050975;28;20045;-66
2020/12/27 09:50:31;;;;;;;36.67;3.45;;;;;;;0.05;59.82;95273.16;5050238;28;20048;-66
2020/12/27 09:52:58;;;;;;;26.20;5.05;;;;;;;0.19;59.07;95247.34;5050819;28;20500;-65
2020/12/27 09:55:25;;;;;;;20.02;3.60;;;;;;;0.25;58.40;95242.75;5050230;28;20041;-66
2020/12/27 09:57:51;;;;;;;26.25;2.95;;;;;;;0.36;58.80;95238.13;5050814;28;20463;-68
2020/12/27 10:00:17;;;;;;;35.78;3.08;;;;;;;0.48;58.29;95233.22;5050159;28;20056;-68
2020/12/27 10:02:43;;;;;;;29.30;3.08;;;;;;;0.52;57.33;95215.47;5050783;28;20071;-65
2020/12/27 10:05:10;;;;;;;35.67;3.30;;;;;;;0.67;56.85;95211.88;5050156;28;20056;-68
2020/12/27 10:07:36;;;;;;;39.90;3.45;;;;;;;0.82;56.76;95205.56;5050743;28;20053;-65
2020/12/27 10:10:05;;;;;;;24.90;2.67;;;;;;;1.01;57.05;95199.19;5050520;28;20622;-68
2020/12/27 10:12:31;;;;;;;26.70;2.55;;;;;;;1.16;55.87;95186.69;5054694;28;20171;-65
2020/12/27 10:14:57;;;;;;;13.15;2.22;;;;;;;1.25;55.58;95176.91;5054241;28;20044;-65
2020/12/27 10:17:23;;;;;;;20.92;2.55;;;;;;;1.36;55.49;95172.22;5054055;28;20049;-66
2020/12/27 10:19:50;;;;;;;18.23;2.80;;;;;;;1.37;54.54;95155.84;5054632;28;20041;-68
2020/12/27 10:22:16;;;;;;;32.75;2.90;;;;;;;1.45;55.57;95139.09;5053915;28;20045;-66
2020/12/27 10:24:42;;;;;;;26.38;3.17;;;;;;;1.59;55.35;95133.81;5054581;28;20048;-66
2020/12/27 10:27:09;;;;;;;26.13;3.88;;;;;;;1.67;53.78;95132.34;5053912;28;20056;-66
2020/12/27 10:29:35;;;;;;;41.63;3.97;;;;;;;1.74;54.62;95117.47;5054169;28;20044;-66
2020/12/27 10:32:03;;;;;;;16.02;2.42;;;;;;;1.73;53.23;95118.56;5053562;28;20045;-69
2020/12/27 10:34:30;;;;;;;28.67;2.80;;;;;;;1.74;53.71;95111.31;5054176;28;20052;-66
2020/12/27 10:36:59;;;;;;;27.15;2.60;;;;;;;1.76;52.80;95107.22;5053845;28;20071;-66
2020/12/27 10:39:26;;;;;;;36.58;3.28;;;;;;;1.59;53.04;95106.97;5053545;28;20404;-66
2020/12/27 10:41:53;;;;;;;24.52;2.78;;;;;;;1.61;54.19;95104.00;5054150;28;20094;-66
2020/12/27 10:44:21;;;;;;;23.77;2.67;;;;;;;1.56;53.50;95086.88;5053159;28;20041;-66
2020/12/27 10:46:49;;;;;;;32.60;3.45;;;;;;;1.56;55.12;95091.44;5053853;28;20048;-65
2020/12/27 10:49:16;;;;;;;22.67;2.97;;;;;;;1.57;55.20;95076.97;5053394;28;20045;-65
2020/12/27 10:51:42;;;;;;;31.77;3.50;;;;;;;1.50;55.35;95063.09;5053839;28;20052;-65
2020/12/27 10:54:09;;;;;;;26.13;4.07;;;;;;;1.50;55.64;95055.06;5053245;28;20501;-66
2020/12/27 10:56:36;;;;;;;35.40;3.50;;;;;;;1.56;56.70;95053.88;5053695;28;20098;-65
2020/12/27 10:59:02;;;;;;;34.05;3.78;;;;;;;1.65;57.09;95049.44;5053246;28;20611;-66
2020/12/27 11:01:28;;;;;;;26.90;4.00;;;;;;;1.72;56.88;95041.84;5053645;28;20045;-66
2020/12/27 11:03:54;;;;;;;29.60;3.78;;;;;;;1.82;57.21;95032.78;5053765;28;20123;-65
2020/12/27 11:06:28;;;;;;;32.20;4.13;;;;;;;1.87;56.83;95026.56;5053134;28;20504;-66
2020/12/27 11:08:54;;;;;;;27.65;4.10;;;;;;;1.92;57.97;95027.25;5053627;28;20045;-68
2020/12/27 11:11:20;;;;;;;29.13;3.90;;;;;;;1.96;57.43;95024.78;5052861;28;20541;-65
2020/12/27 11:13:46;;;;;;;22.85;3.63;;;;;;;2.01;57.07;95016.66;5053354;28;20052;-67
2020/12/27 11:16:12;;;;;;;30.88;4.25;;;;;;;2.05;58.76;95006.91;5052519;28;20522;-68
2020/12/27 11:18:39;;;;;;;24.33;3.78;;;;;;;2.06;57.29;95011.19;5053108;28;20061;-67
2020/12/27 11:21:05;;;;;;;28.63;4.15;;;;;;;2.02;56.80;95002.13;5052852;28;20045;-66
2020/12/27 11:23:31;;;;;;;43.58;4.88;;;;;;;1.97;56.97;94978.03;5052761;28;20454;-65
2020/12/27 11:25:57;;;;;;;23.73;4.10;;;;;;;1.98;57.14;94975.06;5053262;28;20045;-66
2020/12/27 11:28:23;;;;;;;35.80;4.35;;;;;;;1.97;57.39;94965.41;5052611;28;20045;-66
2020/12/27 11:30:49;;;;;;;27.92;4.05;;;;;;;1.91;57.31;94952.41;5053157;28;20037;-65